Time,TemperatureF,DewpointF,PressureIn,WindDirection,WindDirectionDegrees,WindSpeedMPH,WindSpeedGustMPH,Humidity,HourlyPrecipIn,Conditions,Clouds,dailyrainin,SolarRadiationWatts/m^2,SoftwareType,DateUTC
2013-01-10 00:10:00,41.9,36.0,30.09,North,360,0.0,2.0,80,0.00,,,0.00,0,weatherlink.com 1.10,2013-01-10 08:10:00,
2013-01-10 00:25:00,41.9,36.0,30.09,North,10,0.0,3.0,80,0.00,,,0.00,0,weatherlink.com 1.10,2013-01-10 08:25:00,
2013-01-10 00:40:00,42.2,36.0,30.09,NNE,22,1.0,2.0,78,0.00,,,0.00,0,weatherlink.com 1.10,2013-01-10 08:40:00,
2013-01-10 00:55:00,42.0,35.0,30.09,NNE,19,0.0,2.0,77,0.00,,,0.00,0,weatherlink.com 1.10,2013-01-10 08:55:00,
2013-01-10 01:10:00,41.8,35.0,30.09,North,10,1.0,4.0,77,0.00,,,0.00,0,weatherlink.com 1.10,2013-01-10 09:10:00,
2013-01-10 01:26:00,41.5,35.0,30.10,NNE,13,0.0,2.0,78,0.00,,,0.00,0,weatherlink.com 1.10,2013-01-10 09:26:00,
2013-01-10 01:41:00,41.1,35.0,30.10,NNE,14,0.0,2.0,78,0.00,,,0.00,0,weatherlink.com 1.10,2013-01-10 09:41:00,
2013-01-10 01:56:00,41.0,35.0,30.10,NNE,19,0.0,2.0,78,0.00,,,0.00,0,weatherlink.com 1.10,2013-01-10 09:56:00,
2013-01-10 02:11:00,40.8,34.0,30.10,NNE,15,0.0,0.0,78,0.00,,,0.00,0,weatherlink.com 1.10,2013-01-10 10:11:00,
2013-01-10 02:26:00,40.2,34.0,30.11,NNE,15,0.0,1.0,79,0.00,,,0.00,0,weatherlink.com 1.10,2013-01-10 10:26:00,
2013-01-10 02:41:00,39.9,34.0,30.11,NNE,15,0.0,1.0,80,0.00,,,0.00,0,weatherlink.com 1.10,2013-01-10 10:41:00,
2013-01-10 02:56:00,39.5,34.0,30.10,NNE,15,0.0,1.0,81,0.00,,,0.00,0,weatherlink.com 1.10,2013-01-10 10:56:00,
2013-01-10 03:11:00,39.2,34.0,30.10,NNE,15,0.0,1.0,81,0.00,,,0.00,0,weatherlink.com 1.10,2013-01-10 11:11:00,
2013-01-10 03:26:00,38.8,33.0,30.11,NNE,15,0.0,0.0,81,0.00,,,0.00,0,weatherlink.com 1.10,2013-01-10 11:26:00,
2013-01-10 03:41:00,38.8,34.0,30.10,NNE,26,0.0,1.0,82,0.00,,,0.00,0,weatherlink.com 1.10,2013-01-10 11:41:00,
2013-01-10 03:56:00,38.9,34.0,30.10,ENE,71,0.0,1.0,82,0.00,,,0.00,0,weatherlink.com 1.10,2013-01-10 11:56:00,
2013-01-10 04:11:00,39.1,34.0,30.10,North,11,0.0,3.0,82,0.00,,,0.00,0,weatherlink.com 1.10,2013-01-10 12:11:00,
2013-01-10 04:26:00,39.4,34.0,30.10,NNE,19,0.0,1.0,82,0.00,,,0.00,0,weatherlink.com 1.10,2013-01-10 12:26:00,
2013-01-10 04:41:00,39.1,34.0,30.09,NNE,19,0.0,0.0,81,0.00,,,0.00,0,weatherlink.com 1.10,2013-01-10 12:41:00,
2013-01-10 04:56:00,38.8,34.0,30.09,NNE,19,0.0,1.0,82,0.00,,,0.00,0,weatherlink.com 1.10,2013-01-10 12:56:00,
2013-01-10 05:11:00,39.0,34.0,30.10,NNE,19,0.0,1.0,83,0.00,,,0.00,0,weatherlink.com 1.10,2013-01-10 13:11:00,
2013-01-10 05:26:00,39.0,34.0,30.10,NNE,19,0.0,0.0,83,0.00,,,0.00,0,weatherlink.com 1.10,2013-01-10 13:26:00,
2013-01-10 05:41:00,38.8,34.0,30.10,NNE,19,0.0,0.0,84,0.00,,,0.00,0,weatherlink.com 1.10,2013-01-10 13:41:00,
2013-01-10 05:56:00,38.7,35.0,30.10,NNE,18,0.0,1.0,86,0.00,,,0.00,0,weatherlink.com 1.10,2013-01-10 13:56:00,
2013-01-10 06:11:00,38.4,35.0,30.10,NNE,18,0.0,1.0,87,0.00,,,0.00,0,weatherlink.com 1.10,2013-01-10 14:11:00,
2013-01-10 06:26:00,38.1,35.0,30.10,NNE,19,0.0,0.0,87,0.00,,,0.00,0,weatherlink.com 1.10,2013-01-10 14:26:00,
2013-01-10 06:41:00,37.8,34.0,30.10,NNE,18,0.0,1.0,87,0.00,,,0.00,0,weatherlink.com 1.10,2013-01-10 14:41:00,
2013-01-10 06:56:00,37.5,34.0,30.11,NNE,32,0.0,1.0,87,0.00,,,0.00,0,weatherlink.com 1.10,2013-01-10 14:56:00,
2013-01-10 07:11:00,37.2,34.0,30.11,NNE,32,0.0,0.0,87,0.00,,,0.00,0,weatherlink.com 1.10,2013-01-10 15:11:00,
2013-01-10 07:26:00,37.5,34.0,30.11,NNE,32,0.0,1.0,87,0.00,,,0.00,5,weatherlink.com 1.10,2013-01-10 15:26:00,
2013-01-10 07:41:00,37.5,34.0,30.11,NNE,32,0.0,1.0,87,0.00,,,0.00,11,weatherlink.com 1.10,2013-01-10 15:41:00,
2013-01-10 07:56:00,37.2,34.0,30.12,NNE,32,0.0,0.0,88,0.00,,,0.00,16,weatherlink.com 1.10,2013-01-10 15:56:00,
2013-01-10 08:11:00,37.9,35.0,30.12,NE,35,0.0,1.0,90,0.00,,,0.00,84,weatherlink.com 1.10,2013-01-10 16:11:00,
2013-01-10 08:26:00,40.7,37.0,30.13,NE,35,0.0,2.0,86,0.00,,,0.00,134,weatherlink.com 1.10,2013-01-10 16:26:00,
2013-01-10 08:41:00,42.9,36.0,30.13,NNE,22,0.0,3.0,78,0.00,,,0.00,178,weatherlink.com 1.10,2013-01-10 16:41:00,
2013-01-10 08:56:00,44.1,37.0,30.13,NNE,24,0.0,4.0,76,0.00,,,0.00,230,weatherlink.com 1.10,2013-01-10 16:56:00,
2013-01-10 09:12:00,45.4,37.0,30.13,North,10,3.0,5.0,72,0.00,,,0.00,276,weatherlink.com 1.10,2013-01-10 17:12:00,
2013-01-10 09:27:00,45.9,37.0,30.14,SE,139,0.0,4.0,71,0.00,,,0.00,315,weatherlink.com 1.10,2013-01-10 17:27:00,
2013-01-10 09:42:00,46.1,37.0,30.14,NNE,24,0.0,4.0,71,0.00,,,0.00,352,weatherlink.com 1.10,2013-01-10 17:42:00,
2013-01-10 09:57:00,46.7,37.0,30.14,North,355,3.0,6.0,68,0.00,,,0.00,388,weatherlink.com 1.10,2013-01-10 17:57:00,
2013-01-10 10:12:00,46.9,36.0,30.13,NNE,12,2.0,6.0,67,0.00,,,0.00,420,weatherlink.com 1.10,2013-01-10 18:12:00,
2013-01-10 10:27:00,47.6,36.0,30.13,NNE,19,3.0,5.0,65,0.00,,,0.00,452,weatherlink.com 1.10,2013-01-10 18:27:00,
2013-01-10 10:42:00,48.3,37.0,30.13,North,5,0.0,4.0,66,0.00,,,0.00,476,weatherlink.com 1.10,2013-01-10 18:42:00,
2013-01-10 10:57:00,48.7,37.0,30.13,North,355,1.0,6.0,64,0.00,,,0.00,499,weatherlink.com 1.10,2013-01-10 18:57:00,
2013-01-10 11:12:00,49.2,37.0,30.13,North,5,3.0,7.0,62,0.00,,,0.00,519,weatherlink.com 1.10,2013-01-10 19:12:00,
2013-01-10 11:27:00,49.0,37.0,30.12,NE,34,1.0,6.0,64,0.00,,,0.00,536,weatherlink.com 1.10,2013-01-10 19:27:00,
2013-01-10 11:57:00,49.9,36.0,30.11,North,11,2.0,5.0,60,0.00,,,0.00,575,weatherlink.com 1.10,2013-01-10 19:57:00,
2013-01-10 12:12:00,49.8,37.0,30.11,NNW,341,2.0,5.0,61,0.00,,,0.00,559,weatherlink.com 1.10,2013-01-10 20:12:00,
2013-01-10 12:27:00,50.2,37.0,30.10,North,5,2.0,8.0,60,0.00,,,0.00,561,weatherlink.com 1.10,2013-01-10 20:27:00,
2013-01-10 12:42:00,51.2,38.0,30.10,NNE,17,2.0,4.0,60,0.00,,,0.00,559,weatherlink.com 1.10,2013-01-10 20:42:00,
2013-01-10 12:57:00,51.5,37.0,30.09,North,355,1.0,5.0,57,0.00,,,0.00,552,weatherlink.com 1.10,2013-01-10 20:57:00,
2013-01-10 13:12:00,51.2,37.0,30.09,North,350,3.0,7.0,58,0.00,,,0.00,545,weatherlink.com 1.10,2013-01-10 21:12:00,
2013-01-10 13:27:00,52.1,36.0,30.09,NE,34,3.0,4.0,54,0.00,,,0.00,531,weatherlink.com 1.10,2013-01-10 21:27:00,
2013-01-10 13:42:00,51.9,35.0,30.09,North,355,2.0,6.0,53,0.00,,,0.00,520,weatherlink.com 1.10,2013-01-10 21:42:00,
2013-01-10 13:57:00,52.4,36.0,30.09,NNE,23,1.0,8.0,53,0.00,,,0.00,490,weatherlink.com 1.10,2013-01-10 21:57:00,
2013-01-10 14:12:00,52.6,34.0,30.09,North,10,0.0,9.0,50,0.00,,,0.00,464,weatherlink.com 1.10,2013-01-10 22:12:00,
2013-01-10 14:27:00,52.7,34.0,30.09,North,350,3.0,6.0,49,0.00,,,0.00,438,weatherlink.com 1.10,2013-01-10 22:27:00,
2013-01-10 14:42:00,53.3,34.0,30.10,NE,35,0.0,5.0,49,0.00,,,0.00,406,weatherlink.com 1.10,2013-01-10 22:42:00,
2013-01-10 14:58:00,53.1,33.0,30.09,WNW,303,0.0,6.0,47,0.00,,,0.00,383,weatherlink.com 1.10,2013-01-10 22:58:00,
2013-01-10 15:13:00,52.6,35.0,30.10,NNE,16,1.0,5.0,51,0.00,,,0.00,54,weatherlink.com 1.10,2013-01-10 23:13:00,
2013-01-10 15:28:00,52.8,35.0,30.10,NNE,22,0.0,6.0,51,0.00,,,0.00,295,weatherlink.com 1.10,2013-01-10 23:28:00,
2013-01-10 15:43:00,52.0,35.0,30.10,North,349,3.0,8.0,53,0.00,,,0.00,234,weatherlink.com 1.10,2013-01-10 23:43:00,
2013-01-10 15:58:00,52.0,36.0,30.10,North,5,1.0,4.0,55,0.00,,,0.00,181,weatherlink.com 1.10,2013-01-10 23:58:00,
2013-01-10 16:13:00,52.3,34.0,30.10,North,11,0.0,4.0,50,0.00,,,0.00,127,weatherlink.com 1.10,2013-01-11 00:13:00,
2013-01-10 16:28:00,51.2,33.0,30.10,North,11,3.0,4.0,51,0.00,,,0.00,79,weatherlink.com 1.10,2013-01-11 00:28:00,
2013-01-10 16:43:00,50.2,33.0,30.10,NNE,13,1.0,4.0,52,0.00,,,0.00,33,weatherlink.com 1.10,2013-01-11 00:43:00,
2013-01-10 16:58:00,49.3,35.0,30.11,South,185,0.0,4.0,58,0.00,,,0.00,14,weatherlink.com 1.10,2013-01-11 00:58:00,
2013-01-10 17:13:00,48.0,37.0,30.11,NNE,24,0.0,2.0,65,0.00,,,0.00,0,weatherlink.com 1.10,2013-01-11 01:13:00,
2013-01-10 17:28:00,47.0,37.0,30.12,North,11,0.0,1.0,68,0.00,,,0.00,0,weatherlink.com 1.10,2013-01-11 01:28:00,
2013-01-10 17:43:00,46.1,37.0,30.12,NW,323,0.0,2.0,70,0.00,,,0.00,0,weatherlink.com 1.10,2013-01-11 01:43:00,
2013-01-10 17:58:00,45.4,36.0,30.13,North,5,0.0,3.0,71,0.00,,,0.00,0,weatherlink.com 1.10,2013-01-11 01:58:00,
2013-01-10 18:13:00,44.7,37.0,30.13,North,5,0.0,1.0,73,0.00,,,0.00,0,weatherlink.com 1.10,2013-01-11 02:13:00,
2013-01-10 18:28:00,44.4,36.0,30.14,NNE,17,0.0,2.0,72,0.00,,,0.00,0,weatherlink.com 1.10,2013-01-11 02:28:00,
2013-01-10 18:58:00,44.3,35.0,30.15,North,5,0.0,4.0,70,0.00,,,0.00,0,weatherlink.com 1.10,2013-01-11 02:58:00,
2013-01-10 19:13:00,44.3,35.0,30.15,North,5,0.0,5.0,70,0.00,,,0.00,0,weatherlink.com 1.10,2013-01-11 03:13:00,
2013-01-10 19:28:00,44.0,35.0,30.15,NNE,32,0.0,3.0,71,0.00,,,0.00,0,weatherlink.com 1.10,2013-01-11 03:28:00,
2013-01-10 19:43:00,43.9,35.0,30.15,North,355,3.0,4.0,70,0.00,,,0.00,0,weatherlink.com 1.10,2013-01-11 03:43:00,
2013-01-10 19:58:00,43.7,34.0,30.16,North,9,0.0,4.0,69,0.00,,,0.00,0,weatherlink.com 1.10,2013-01-11 03:58:00,
2013-01-10 20:13:00,43.1,34.0,30.16,NNE,12,1.0,2.0,70,0.00,,,0.00,0,weatherlink.com 1.10,2013-01-11 04:13:00,
2013-01-10 20:28:00,42.8,34.0,30.17,NNE,13,0.0,4.0,70,0.00,,,0.00,0,weatherlink.com 1.10,2013-01-11 04:28:00,
2013-01-10 20:43:00,42.5,34.0,30.17,NNE,16,0.0,2.0,71,0.00,,,0.00,0,weatherlink.com 1.10,2013-01-11 04:43:00,
2013-01-10 20:58:00,42.3,33.0,30.17,NNE,19,0.0,6.0,70,0.00,,,0.00,0,weatherlink.com 1.10,2013-01-11 04:58:00,
2013-01-10 21:13:00,42.3,33.0,30.18,NNW,346,1.0,2.0,70,0.00,,,0.00,0,weatherlink.com 1.10,2013-01-11 05:13:00,
2013-01-10 21:28:00,42.2,33.0,30.18,NNE,19,0.0,3.0,69,0.00,,,0.00,0,weatherlink.com 1.10,2013-01-11 05:28:00,
2013-01-10 21:43:00,42.2,33.0,30.19,North,355,1.0,6.0,69,0.00,,,0.00,0,weatherlink.com 1.10,2013-01-11 05:43:00,
2013-01-10 21:58:00,42.0,33.0,30.19,North,5,1.0,4.0,70,0.00,,,0.00,0,weatherlink.com 1.10,2013-01-11 05:58:00,
2013-01-10 22:13:00,41.9,33.0,30.19,NNE,15,2.0,3.0,71,0.00,,,0.00,0,weatherlink.com 1.10,2013-01-11 06:13:00,
2013-01-10 22:28:00,41.8,33.0,30.20,NNE,13,2.0,3.0,71,0.00,,,0.00,0,weatherlink.com 1.10,2013-01-11 06:28:00,
2013-01-10 22:43:00,41.7,33.0,30.20,NNE,18,0.0,4.0,71,0.00,,,0.00,0,weatherlink.com 1.10,2013-01-11 06:43:00,
2013-01-10 22:58:00,41.5,33.0,30.20,North,5,1.0,6.0,71,0.00,,,0.00,0,weatherlink.com 1.10,2013-01-11 06:58:00,
2013-01-10 23:13:00,41.4,33.0,30.20,NNE,24,0.0,3.0,71,0.00,,,0.00,0,weatherlink.com 1.10,2013-01-11 07:13:00,
2013-01-10 23:28:00,41.4,33.0,30.20,NNE,16,0.0,10.0,71,0.00,,,0.00,0,weatherlink.com 1.10,2013-01-11 07:28:00,
2013-01-10 23:43:00,41.5,33.0,30.20,NNE,17,3.0,5.0,71,0.00,,,0.00,0,weatherlink.com 1.10,2013-01-11 07:43:00,
2013-01-10 23:58:00,41.6,33.0,30.20,North,5,1.0,3.0,71,0.00,,,0.00,0,weatherlink.com 1.10,2013-01-11 07:58:00,